Time;durP1;ratioP1;P1;durP2;ratioP2;P2;SDS_P1;SDS_P2;PMS_P1;PMS_P2;Temp;Humidity;BMP_temperature;BMP_pressure;BME280_temperature;BME280_humidity;BME280_pressure;Samples;Min_cycle;Max_cycle;Signal;HPM_P1;HPM_P2
2023/03/12 00:00:38;;;;;;;2.53;2.07;;;-1.50;99.90;;;;;;5077959;28;20178;-78
2023/03/12 00:03:04;;;;;;;3.43;2.33;;;-1.50;99.90;;;;;;5084594;28;20211;-78
2023/03/12 00:05:29;;;;;;;3.73;2.10;;;-1.50;99.90;;;;;;5079177;28;20557;-79
2023/03/12 00:07:58;;;;;;;4.13;2.30;;;-1.50;99.90;;;;;;5097250;28;20174;-78
2023/03/12 00:10:24;;;;;;;3.50;2.27;;;-1.50;99.90;;;;;;5079052;28;20167;-78
2023/03/12 00:12:50;;;;;;;3.40;2.20;;;-1.50;99.90;;;;;;5078596;28;20174;-78
2023/03/12 00:15:16;;;;;;;4.43;2.13;;;-1.50;99.90;;;;;;5097158;28;20214;-79
2023/03/12 00:17:41;;;;;;;3.40;1.90;;;-1.50;99.90;;;;;;5096917;28;20667;-79
2023/03/12 00:20:07;;;;;;;6.00;2.43;;;-1.40;99.90;;;;;;5097149;28;20178;-78
2023/03/12 00:22:33;;;;;;;3.37;2.20;;;-1.50;99.90;;;;;;5096877;28;20202;-78
2023/03/12 00:24:59;;;;;;;4.03;2.30;;;-1.50;99.90;;;;;;5078058;28;20178;-79
2023/03/12 00:27:25;;;;;;;2.97;2.10;;;-1.50;99.90;;;;;;5080653;28;20174;-79
2023/03/12 00:29:51;;;;;;;4.73;2.40;;;-1.50;99.90;;;;;;5083143;28;20171;-79
2023/03/12 00:32:16;;;;;;;3.90;2.33;;;-1.40;99.90;;;;;;5082581;28;20235;-79
2023/03/12 00:34:43;;;;;;;3.40;2.10;;;-1.30;99.90;;;;;;5083264;28;20181;-78
2023/03/12 00:37:08;;;;;;;3.70;2.00;;;-1.20;99.90;;;;;;5100630;28;20209;-78
2023/03/12 00:39:34;;;;;;;3.17;1.97;;;-1.20;99.90;;;;;;5100567;28;20321;-78
2023/03/12 00:42:00;;;;;;;3.70;2.13;;;-1.20;99.90;;;;;;5082546;28;20199;-79
2023/03/12 00:44:26;;;;;;;3.20;2.00;;;-1.10;99.90;;;;;;5083295;28;20175;-79
2023/03/12 00:46:52;;;;;;;3.10;2.07;;;-1.10;99.90;;;;;;5100782;28;20286;-79
2023/03/12 00:49:18;;;;;;;2.17;1.80;;;-1.00;99.90;;;;;;5101085;28;20203;-79
2023/03/12 00:51:43;;;;;;;3.77;1.90;;;-1.00;99.90;;;;;;5082029;28;20202;-79
2023/03/12 00:54:09;;;;;;;3.03;1.97;;;-1.10;99.90;;;;;;5100234;28;20175;-79
2023/03/12 00:56:35;;;;;;;3.07;1.97;;;-1.10;99.90;;;;;;5082661;28;20245;-78
2023/03/12 00:59:00;;;;;;;3.40;1.90;;;-1.20;99.90;;;;;;5082539;28;20208;-79
2023/03/12 01:01:26;;;;;;;4.53;1.97;;;-1.20;99.90;;;;;;5081650;28;20204;-79
2023/03/12 01:03:53;;;;;;;2.80;1.77;;;-1.30;99.90;;;;;;5082444;28;20171;-78
2023/03/12 01:06:19;;;;;;;4.17;1.90;;;-1.30;99.90;;;;;;5100693;28;20207;-79
2023/03/12 01:08:45;;;;;;;4.07;1.93;;;-1.30;99.90;;;;;;5100542;28;20258;-78
2023/03/12 01:11:15;;;;;;;3.77;1.80;;;-1.30;99.90;;;;;;5082558;28;20225;-79
2023/03/12 01:13:41;;;;;;;4.37;2.20;;;-1.20;99.90;;;;;;5082336;28;20179;-79
2023/03/12 01:16:07;;;;;;;3.80;1.80;;;-1.10;99.90;;;;;;5081592;28;20213;-78
2023/03/12 01:18:33;;;;;;;2.73;1.70;;;-1.10;99.90;;;;;;5082044;28;20201;-79
2023/03/12 01:20:58;;;;;;;2.33;1.73;;;-1.10;99.90;;;;;;5081933;28;20182;-79
2023/03/12 01:23:24;;;;;;;2.27;2.07;;;-1.10;99.90;;;;;;5082095;28;20207;-79
2023/03/12 01:25:51;;;;;;;1.60;1.40;;;-1.10;99.90;;;;;;5081905;28;20199;-79
2023/03/12 01:28:17;;;;;;;4.27;1.97;;;-1.10;99.90;;;;;;5100100;28;20162;-79
2023/03/12 01:30:43;;;;;;;3.30;1.80;;;-1.00;99.90;;;;;;5081429;28;20175;-78
2023/03/12 01:33:08;;;;;;;2.60;2.03;;;-0.90;99.90;;;;;;5100031;28;20524;-79
2023/03/12 01:35:38;;;;;;;3.67;2.33;;;-0.90;99.90;;;;;;5081788;28;20190;-78
2023/03/12 01:38:06;;;;;;;3.10;2.10;;;-0.90;99.90;;;;;;5080808;28;20179;-79
2023/03/12 01:40:34;;;;;;;3.00;2.00;;;-0.80;99.90;;;;;;5081000;28;20180;-78
2023/03/12 01:43:23;;;;;;;4.07;2.00;;;-0.90;99.90;;;;;;5099966;28;20226;-79
2023/03/12 01:46:13;;;;;;;4.30;2.00;;;-1.00;99.90;;;;;;5099875;28;20202;-78
2023/03/12 01:48:46;;;;;;;3.90;2.10;;;-1.00;99.90;;;;;;5099612;28;20169;-79
2023/03/12 01:51:14;;;;;;;3.47;1.90;;;-1.00;99.90;;;;;;5081320;28;20681;-79
2023/03/12 01:53:42;;;;;;;3.60;1.80;;;-1.10;99.90;;;;;;5100207;28;20185;-79
2023/03/12 01:56:08;;;;;;;2.63;2.03;;;-1.10;99.90;;;;;;5081421;28;20195;-79
2023/03/12 01:58:38;;;;;;;2.67;1.60;;;-1.10;99.90;;;;;;5081889;28;20171;-78
2023/03/12 02:01:04;;;;;;;2.53;1.60;;;-1.00;99.90;;;;;;5081292;28;20214;-79
2023/03/12 02:03:31;;;;;;;4.30;1.87;;;-0.90;99.90;;;;;;5081128;28;20203;-79
2023/03/12 02:06:10;;;;;;;1.90;1.70;;;-0.90;99.90;;;;;;5081262;28;20194;-79
2023/03/12 02:08:40;;;;;;;2.87;1.93;;;-0.80;99.90;;;;;;5099443;28;20166;-78
2023/03/12 02:11:06;;;;;;;3.30;2.20;;;-0.80;99.90;;;;;;5099040;28;20179;-78
2023/03/12 02:13:32;;;;;;;2.80;1.97;;;-0.80;99.90;;;;;;5081052;28;20170;-79
2023/03/12 02:15:58;;;;;;;2.80;2.07;;;-0.80;99.90;;;;;;5099556;28;20206;-79
2023/03/12 02:18:24;;;;;;;2.47;1.97;;;-0.80;99.90;;;;;;5080990;28;20263;-78
2023/03/12 02:21:18;;;;;;;4.27;1.97;;;-0.80;99.90;;;;;;5098924;28;20187;-78
2023/03/12 02:23:47;;;;;;;2.30;1.90;;;-0.80;99.90;;;;;;5081178;28;20183;-79
2023/03/12 02:26:14;;;;;;;4.83;2.10;;;-0.70;99.90;;;;;;5080803;28;20726;-78
2023/03/12 02:28:42;;;;;;;2.47;1.70;;;-0.80;99.90;;;;;;5080362;28;20175;-78
2023/03/12 02:31:14;;;;;;;2.60;2.00;;;-0.80;99.90;;;;;;5081299;28;20178;-77
2023/03/12 02:33:40;;;;;;;3.10;2.00;;;-0.80;99.90;;;;;;5080804;28;20230;-78
2023/03/12 02:36:08;;;;;;;4.07;2.30;;;-0.80;99.90;;;;;;5099064;28;20183;-78
2023/03/12 02:38:39;;;;;;;3.80;1.93;;;-0.80;99.90;;;;;;5099282;28;20182;-77
2023/03/12 02:41:13;;;;;;;2.00;1.67;;;-0.80;99.90;;;;;;5098851;28;20171;-78
2023/03/12 02:43:39;;;;;;;2.17;1.70;;;-0.80;99.90;;;;;;5080433;28;20183;-78
2023/03/12 02:46:06;;;;;;;2.37;1.80;;;-0.80;99.90;;;;;;5080192;28;20191;-78
2023/03/12 02:48:32;;;;;;;2.47;1.80;;;-0.80;99.90;;;;;;5080320;28;20280;-78
2023/03/12 02:50:57;;;;;;;3.43;1.77;;;-0.80;99.90;;;;;;5079296;28;20259;-79
2023/03/12 02:53:23;;;;;;;2.30;1.70;;;-0.90;99.90;;;;;;5081032;28;20207;-79
2023/03/12 02:55:48;;;;;;;3.63;2.10;;;-0.90;99.90;;;;;;5080303;28;20195;-79
2023/03/12 02:58:14;;;;;;;1.93;1.50;;;-0.90;99.90;;;;;;5080635;28;20634;-79
2023/03/12 03:00:40;;;;;;;2.83;2.00;;;-0.80;99.90;;;;;;5080576;28;20206;-79
2023/03/12 03:03:05;;;;;;;2.43;1.90;;;-0.80;99.90;;;;;;5080558;28;20209;-79
2023/03/12 03:05:31;;;;;;;3.40;2.00;;;-0.80;99.90;;;;;;5098417;28;20343;-78
2023/03/12 03:07:56;;;;;;;2.20;2.00;;;-0.80;99.90;;;;;;5098251;28;20174;-79
2023/03/12 03:10:22;;;;;;;2.40;1.70;;;-0.80;99.90;;;;;;5098268;28;20168;-79
2023/03/12 03:12:47;;;;;;;3.53;1.60;;;-0.70;99.90;;;;;;5098437;28;20180;-78
2023/03/12 03:15:13;;;;;;;2.87;1.90;;;-0.70;99.90;;;;;;5098088;28;20690;-78
2023/03/12 03:17:39;;;;;;;2.50;1.90;;;-0.70;99.90;;;;;;5080017;28;20563;-79
2023/03/12 03:20:09;;;;;;;2.53;1.83;;;-0.70;99.90;;;;;;5097809;28;20825;-79
2023/03/12 03:22:35;;;;;;;2.00;1.60;;;-0.70;99.90;;;;;;5097785;28;20600;-79
2023/03/12 03:25:01;;;;;;;3.00;1.70;;;-0.70;99.90;;;;;;5080373;28;20176;-79
2023/03/12 03:27:26;;;;;;;2.20;1.70;;;-0.70;99.90;;;;;;5098445;28;20539;-78
2023/03/12 03:29:52;;;;;;;3.33;1.93;;;-0.70;99.90;;;;;;5079435;28;20175;-78
2023/03/12 03:32:17;;;;;;;5.50;2.30;;;-0.70;99.90;;;;;;5079728;28;20182;-78
2023/03/12 03:34:43;;;;;;;4.17;1.90;;;-0.60;99.90;;;;;;5080032;28;20584;-78
2023/03/12 03:37:09;;;;;;;4.20;2.00;;;-0.70;99.90;;;;;;5079924;28;20196;-79
2023/03/12 03:39:34;;;;;;;2.33;1.80;;;-0.60;99.90;;;;;;5097778;28;20271;-79
2023/03/12 03:42:00;;;;;;;2.67;2.00;;;-0.60;99.90;;;;;;5097702;28;20204;-79
2023/03/12 03:44:25;;;;;;;4.50;2.00;;;-0.60;99.90;;;;;;5096553;28;20190;-79
2023/03/12 03:46:52;;;;;;;3.30;1.43;;;-0.60;99.90;;;;;;5076594;28;20189;-79
2023/03/12 03:49:17;;;;;;;2.50;2.00;;;-0.60;99.90;;;;;;5094999;28;20180;-78
2023/03/12 03:51:43;;;;;;;2.80;2.07;;;-0.60;99.90;;;;;;5076973;28;20530;-78
2023/03/12 03:54:10;;;;;;;3.97;1.70;;;-0.70;99.90;;;;;;5077607;28;20204;-79
2023/03/12 03:56:35;;;;;;;3.10;1.80;;;-0.70;99.90;;;;;;5097818;28;20203;-79
2023/03/12 03:59:02;;;;;;;4.40;1.70;;;-0.70;99.90;;;;;;5097857;28;20271;-79
2023/03/12 04:01:30;;;;;;;2.67;1.63;;;-0.70;99.90;;;;;;5078967;28;20176;-78
2023/03/12 04:03:56;;;;;;;2.73;1.77;;;-0.70;99.90;;;;;;5097782;28;20179;-78
2023/03/12 04:06:21;;;;;;;2.43;2.10;;;-0.60;99.90;;;;;;5069742;28;20731;-79
2023/03/12 04:08:47;;;;;;;2.37;1.90;;;-0.60;99.90;;;;;;5077338;28;20172;-78
2023/03/12 04:11:15;;;;;;;2.87;1.90;;;-0.60;99.90;;;;;;5059503;28;20277;-78
2023/03/12 04:13:42;;;;;;;3.40;1.90;;;-0.60;99.90;;;;;;5059225;28;20223;-78
2023/03/12 04:16:08;;;;;;;2.83;2.00;;;-0.60;99.90;;;;;;5058454;28;20222;-77
2023/03/12 04:18:35;;;;;;;2.53;1.60;;;-0.50;99.90;;;;;;5077077;28;20228;-79
2023/03/12 04:21:01;;;;;;;2.80;1.80;;;-0.50;99.90;;;;;;5058342;28;20172;-78
2023/03/12 04:23:26;;;;;;;3.00;1.60;;;-0.60;99.90;;;;;;5058213;28;20212;-78
2023/03/12 04:25:52;;;;;;;2.60;1.80;;;-0.60;99.90;;;;;;5076916;28;20204;-79
2023/03/12 04:28:17;;;;;;;2.63;1.80;;;-0.60;99.90;;;;;;5077001;28;20178;-78
2023/03/12 04:30:43;;;;;;;1.60;1.30;;;-0.60;99.90;;;;;;5077215;28;20177;-79
2023/03/12 04:33:09;;;;;;;2.07;1.73;;;-0.60;99.90;;;;;;5059263;28;20181;-78
2023/03/12 04:35:34;;;;;;;2.23;1.70;;;-0.60;99.90;;;;;;5077124;28;20267;-79
2023/03/12 04:38:01;;;;;;;2.97;1.70;;;-0.60;99.90;;;;;;5077175;28;20179;-78
2023/03/12 04:40:27;;;;;;;1.53;1.43;;;-0.60;99.90;;;;;;5076840;28;20631;-78
2023/03/12 04:42:52;;;;;;;2.30;1.50;;;-0.60;99.90;;;;;;5075370;28;20199;-79
2023/03/12 04:45:18;;;;;;;2.67;1.70;;;-0.60;99.90;;;;;;5059227;28;20203;-78
2023/03/12 04:47:44;;;;;;;1.93;1.70;;;-0.60;99.90;;;;;;5076550;28;20173;-79
2023/03/12 04:50:11;;;;;;;3.13;1.60;;;-0.50;99.90;;;;;;5058997;28;20595;-78
2023/03/12 04:52:37;;;;;;;3.30;1.77;;;-0.50;99.90;;;;;;5058894;28;20204;-78
2023/03/12 04:55:03;;;;;;;1.97;1.60;;;-0.40;99.90;;;;;;5058523;28;20181;-78
2023/03/12 04:57:29;;;;;;;3.47;1.67;;;-0.40;99.90;;;;;;5058878;28;20214;-79
2023/03/12 04:59:54;;;;;;;3.67;1.80;;;-0.50;99.90;;;;;;5058253;28;20174;-78
2023/03/12 05:02:20;;;;;;;2.07;1.50;;;-0.40;99.90;;;;;;5076704;28;20604;-79
2023/03/12 05:04:46;;;;;;;2.00;1.80;;;-0.40;99.90;;;;;;5058619;28;20173;-78
2023/03/12 05:07:11;;;;;;;2.23;2.03;;;-0.40;99.90;;;;;;5058201;28;20175;-79
2023/03/12 05:09:37;;;;;;;3.30;1.80;;;-0.40;99.90;;;;;;5058631;28;20177;-77
2023/03/12 05:12:03;;;;;;;3.47;1.63;;;-0.40;99.90;;;;;;5076444;28;20199;-78
2023/03/12 05:14:28;;;;;;;3.33;1.57;;;-0.40;99.90;;;;;;5060725;28;20209;-79
2023/03/12 05:16:54;;;;;;;2.10;1.80;;;-0.40;99.90;;;;;;5140202;22;20631;-82
2023/03/12 05:19:20;;;;;;;2.33;1.70;;;-0.40;99.90;;;;;;5091890;28;20217;-81
2023/03/12 05:21:45;;;;;;;3.77;1.90;;;-0.40;99.90;;;;;;5089702;28;20196;-81
2023/03/12 05:24:11;;;;;;;2.57;1.70;;;-0.40;99.90;;;;;;5079087;28;20301;-82
2023/03/12 05:26:37;;;;;;;1.60;1.50;;;-0.40;99.90;;;;;;5078847;28;20662;-81
2023/03/12 05:29:04;;;;;;;4.17;2.73;;;-0.40;99.90;;;;;;5078610;28;20243;-82
2023/03/12 05:31:33;;;;;;;14.83;7.10;;;-0.40;99.90;;;;;;5096810;28;20165;-79
2023/03/12 05:34:00;;;;;;;15.17;6.93;;;-0.40;99.90;;;;;;5079152;28;20164;-82
2023/03/12 05:36:25;;;;;;;7.40;3.53;;;-0.40;99.90;;;;;;5078805;28;20245;-82
2023/03/12 05:38:51;;;;;;;5.93;3.00;;;-0.40;99.90;;;;;;5078653;28;20270;-82
2023/03/12 05:41:26;;;;;;;11.43;5.37;;;-0.40;99.90;;;;;;5079045;28;20172;-82
2023/03/12 05:43:53;;;;;;;8.20;4.07;;;-0.30;99.90;;;;;;5079738;28;20241;-81
2023/03/12 05:46:19;;;;;;;3.40;2.40;;;-0.40;99.90;;;;;;5080071;28;20290;-82
2023/03/12 05:48:45;;;;;;;3.43;2.27;;;-0.40;99.90;;;;;;5082539;28;20176;-81
2023/03/12 05:51:11;;;;;;;2.60;2.10;;;-0.30;99.90;;;;;;5098915;28;20638;-81
2023/03/12 05:53:36;;;;;;;4.37;2.33;;;-0.30;99.90;;;;;;5081566;28;20207;-82
2023/03/12 05:56:09;;;;;;;5.70;3.30;;;-0.20;99.90;;;;;;5080520;28;20787;-83
2023/03/12 05:58:36;;;;;;;7.00;4.03;;;-0.20;99.90;;;;;;5078468;28;20550;-77
2023/03/12 06:01:03;;;;;;;5.00;3.30;;;0.50;99.90;;;;;;5076959;28;20183;-79
2023/03/12 06:03:29;;;;;;;7.13;3.40;;;1.30;99.90;;;;;;5071426;28;20196;-79
2023/03/12 06:05:55;;;;;;;5.13;3.10;;;1.60;99.90;;;;;;5062089;28;20196;-80
2023/03/12 06:08:22;;;;;;;6.70;3.63;;;2.20;99.90;;;;;;5089852;28;20181;-81
2023/03/12 06:10:51;;;;;;;8.97;4.10;;;2.60;99.90;;;;;;5075073;28;20174;-83
2023/03/12 06:13:16;;;;;;;7.20;4.00;;;2.60;99.90;;;;;;5099254;28;20180;-82
2023/03/12 06:15:42;;;;;;;7.50;3.70;;;2.00;99.90;;;;;;5097996;28;20174;-81
2023/03/12 06:18:07;;;;;;;6.37;3.17;;;1.40;99.90;;;;;;5080868;28;20218;-81
2023/03/12 06:20:33;;;;;;;4.07;2.70;;;1.10;99.90;;;;;;5099785;28;20181;-81
2023/03/12 06:22:59;;;;;;;3.30;2.70;;;0.90;99.90;;;;;;5099204;28;20206;-79
2023/03/12 06:25:24;;;;;;;4.57;2.70;;;0.60;99.90;;;;;;5099819;28;20202;-81
2023/03/12 06:27:50;;;;;;;3.17;2.40;;;0.40;99.90;;;;;;5081873;28;20639;-84
2023/03/12 06:30:15;;;;;;;7.67;4.80;;;0.40;99.90;;;;;;5084360;28;20195;-84
2023/03/12 06:32:41;;;;;;;5.00;2.97;;;0.40;99.90;;;;;;5084962;28;20224;-85
2023/03/12 06:35:07;;;;;;;5.10;3.30;;;0.40;99.90;;;;;;5103921;28;20175;-84
2023/03/12 06:37:32;;;;;;;7.57;3.23;;;0.30;99.90;;;;;;5086557;28;20562;-84
2023/03/12 06:39:58;;;;;;;6.73;3.13;;;0.30;99.90;;;;;;5086934;28;20215;-84
2023/03/12 06:42:25;;;;;;;5.57;2.70;;;0.30;99.90;;;;;;5105586;28;20219;-84
2023/03/12 06:44:51;;;;;;;4.27;2.90;;;0.30;99.90;;;;;;5083736;28;20263;-82
2023/03/12 06:47:16;;;;;;;6.13;2.70;;;0.30;99.90;;;;;;5077700;28;20304;-83
2023/03/12 06:49:42;;;;;;;5.63;2.97;;;0.30;99.90;;;;;;5077498;28;20168;-82
2023/03/12 06:52:08;;;;;;;5.43;3.13;;;0.40;99.90;;;;;;5095748;28;20172;-84
2023/03/12 06:54:33;;;;;;;4.77;2.90;;;0.40;99.90;;;;;;5082369;28;20215;-81
2023/03/12 06:56:59;;;;;;;4.70;2.80;;;0.40;99.90;;;;;;5101531;28;20195;-81
2023/03/12 06:59:25;;;;;;;3.57;2.50;;;0.50;99.90;;;;;;5101149;28;20211;-83
2023/03/12 07:01:50;;;;;;;2.77;2.00;;;0.50;99.90;;;;;;5101348;28;20200;-83
2023/03/12 07:04:16;;;;;;;3.03;1.80;;;0.60;99.90;;;;;;5097317;28;20207;-84
2023/03/12 07:06:43;;;;;;;3.23;1.60;;;0.70;99.90;;;;;;5075365;28;20188;-84
2023/03/12 07:09:08;;;;;;;2.73;1.47;;;0.80;99.90;;;;;;5075734;28;20196;-83
2023/03/12 07:11:34;;;;;;;1.80;1.40;;;0.90;99.90;;;;;;5075823;28;20203;-83
2023/03/12 07:14:00;;;;;;;2.53;1.70;;;1.00;99.90;;;;;;5093376;28;20279;-82
2023/03/12 07:16:26;;;;;;;4.57;1.90;;;1.00;99.90;;;;;;5075004;28;20211;-81
2023/03/12 07:18:51;;;;;;;4.03;1.83;;;1.10;99.90;;;;;;5093483;28;20168;-81
2023/03/12 07:21:21;;;;;;;3.73;1.70;;;1.20;99.90;;;;;;5075217;28;20218;-82
2023/03/12 07:23:48;;;;;;;2.60;1.60;;;1.20;99.90;;;;;;5093414;28;20173;-84
2023/03/12 07:26:14;;;;;;;4.03;1.70;;;1.30;99.90;;;;;;5095098;28;20260;-82
2023/03/12 07:28:40;;;;;;;3.53;1.70;;;1.30;99.90;;;;;;5094349;28;20227;-82
2023/03/12 07:31:06;;;;;;;2.70;1.70;;;1.30;99.90;;;;;;5094465;28;20164;-82
2023/03/12 07:33:32;;;;;;;2.93;1.60;;;1.40;99.90;;;;;;5076792;28;20242;-79
2023/03/12 07:35:58;;;;;;;2.00;1.60;;;1.70;99.90;;;;;;5076404;28;20669;-81
2023/03/12 07:38:23;;;;;;;4.27;1.70;;;1.80;99.90;;;;;;5093882;28;20606;-82
2023/03/12 07:40:54;;;;;;;3.70;1.70;;;1.80;99.90;;;;;;5075985;28;20215;-83
2023/03/12 07:43:20;;;;;;;2.60;1.57;;;1.90;99.90;;;;;;5075669;28;20208;-82
2023/03/12 07:45:45;;;;;;;3.33;1.77;;;2.00;99.90;;;;;;5076375;28;20192;-83
2023/03/12 07:48:11;;;;;;;2.70;1.93;;;2.00;99.90;;;;;;5075637;28;20544;-84
2023/03/12 07:50:37;;;;;;;2.67;1.80;;;2.00;99.90;;;;;;5075584;28;20240;-85
2023/03/12 07:53:04;;;;;;;5.10;2.07;;;2.00;99.90;;;;;;5077196;28;20636;-83
2023/03/12 07:55:31;;;;;;;2.53;1.73;;;2.00;99.90;;;;;;5094867;28;20256;-84
2023/03/12 07:57:57;;;;;;;2.97;1.90;;;2.00;99.90;;;;;;5076749;28;20180;-84
2023/03/12 08:00:24;;;;;;;3.90;1.43;;;2.10;99.90;;;;;;5094991;28;20177;-83
2023/03/12 08:02:50;;;;;;;4.23;1.43;;;2.10;99.90;;;;;;5076626;28;20227;-83
2023/03/12 08:05:16;;;;;;;2.27;1.40;;;2.20;99.90;;;;;;5094789;28;20176;-83
2023/03/12 08:07:41;;;;;;;3.17;1.60;;;2.30;99.90;;;;;;5093736;28;20291;-83
2023/03/12 08:10:08;;;;;;;1.63;1.40;;;2.30;99.90;;;;;;5075776;28;20626;-83
2023/03/12 08:12:36;;;;;;;1.70;1.40;;;2.40;99.90;;;;;;5075745;28;20188;-83
2023/03/12 08:15:03;;;;;;;2.10;1.53;;;2.50;99.90;;;;;;5094137;28;20183;-83
2023/03/12 08:17:28;;;;;;;4.33;1.43;;;2.60;99.90;;;;;;5093183;28;20580;-85
2023/03/12 08:19:54;;;;;;;3.10;1.50;;;2.70;99.90;;;;;;5074437;28;20180;-83
2023/03/12 08:22:19;;;;;;;5.50;1.80;;;2.70;99.90;;;;;;5092624;28;20224;-85
2023/03/12 08:24:45;;;;;;;2.47;1.20;;;2.70;99.90;;;;;;5093165;28;20173;-84
2023/03/12 08:27:13;;;;;;;3.30;1.10;;;2.80;99.90;;;;;;5093200;28;20185;-84
2023/03/12 08:29:39;;;;;;;1.80;1.40;;;2.80;99.90;;;;;;5092802;28;20726;-85
2023/03/12 08:32:06;;;;;;;5.17;1.60;;;2.70;99.90;;;;;;5074385;28;20207;-85
2023/03/12 08:34:33;;;;;;;4.67;1.83;;;2.70;99.90;;;;;;5074368;28;20272;-85
2023/03/12 08:36:59;;;;;;;2.23;1.37;;;2.70;99.90;;;;;;5075308;28;20683;-84
2023/03/12 08:39:24;;;;;;;2.13;1.50;;;2.70;99.90;;;;;;5075886;28;20272;-84
2023/03/12 08:41:54;;;;;;;1.57;1.30;;;2.70;99.90;;;;;;5075577;28;20669;-83
2023/03/12 08:44:23;;;;;;;2.47;1.33;;;2.70;99.90;;;;;;5075739;28;20207;-82
2023/03/12 08:46:48;;;;;;;3.37;1.40;;;2.70;99.90;;;;;;5075723;28;20192;-86
2023/03/12 08:49:14;;;;;;;3.27;1.97;;;2.70;99.90;;;;;;5078066;28;20175;-84
2023/03/12 08:51:39;;;;;;;3.27;1.60;;;2.70;99.90;;;;;;5079677;28;20166;-85
2023/03/12 08:54:05;;;;;;;2.67;1.47;;;2.70;99.90;;;;;;5080066;28;20203;-84
2023/03/12 08:56:31;;;;;;;4.00;1.47;;;2.80;99.90;;;;;;5098363;28;20196;-82
2023/03/12 08:58:58;;;;;;;3.63;1.30;;;2.80;99.90;;;;;;5097622;28;20169;-83
2023/03/12 09:01:24;;;;;;;2.97;1.90;;;2.90;99.90;;;;;;5097194;28;20179;-83
2023/03/12 09:03:51;;;;;;;1.83;1.40;;;2.90;99.90;;;;;;5097685;28;20200;-83
2023/03/12 09:06:18;;;;;;;2.83;1.43;;;3.00;99.90;;;;;;5084356;28;20585;-83
2023/03/12 09:08:44;;;;;;;3.70;1.43;;;3.00;99.90;;;;;;5071001;28;20185;-84
2023/03/12 09:11:12;;;;;;;5.70;1.80;;;3.00;99.90;;;;;;5075417;28;20188;-84
2023/03/12 09:13:38;;;;;;;3.63;1.80;;;3.00;99.90;;;;;;5077362;28;20180;-84
2023/03/12 09:16:05;;;;;;;3.97;1.47;;;3.00;99.90;;;;;;5059274;28;20213;-83
2023/03/12 09:18:31;;;;;;;5.27;1.50;;;3.00;99.90;;;;;;5080168;28;20177;-82
2023/03/12 09:20:57;;;;;;;3.57;1.60;;;2.90;99.90;;;;;;5082529;28;20172;-83
2023/03/12 09:23:23;;;;;;;3.47;1.80;;;2.90;99.90;;;;;;5101054;28;20258;-79
2023/03/12 09:25:49;;;;;;;2.97;1.70;;;2.90;99.90;;;;;;5081170;28;20228;-82
2023/03/12 09:28:15;;;;;;;3.43;1.80;;;2.80;99.90;;;;;;5082464;28;20175;-83
2023/03/12 09:30:41;;;;;;;3.67;2.10;;;2.80;99.90;;;;;;5082333;28;20200;-82
2023/03/12 09:33:07;;;;;;;4.67;1.80;;;2.80;99.90;;;;;;5083523;28;20168;-84
2023/03/12 09:35:32;;;;;;;6.33;2.00;;;2.70;99.90;;;;;;5083468;28;20185;-78
2023/03/12 09:37:59;;;;;;;3.70;1.80;;;2.80;99.90;;;;;;5084052;28;20172;-79
2023/03/12 09:40:28;;;;;;;4.33;2.03;;;2.90;99.90;;;;;;5085956;28;20172;-81
2023/03/12 09:43:37;;;;;;;3.03;2.00;;;2.90;99.90;;;;;;5084268;28;20210;-81
2023/03/12 09:46:08;;;;;;;2.00;1.80;;;2.70;99.90;;;;;;4993867;28;20673;-82
2023/03/12 09:48:36;;;;;;;4.13;2.17;;;2.60;99.90;;;;;;5068718;28;20184;-81
2023/03/12 09:51:16;;;;;;;5.40;2.70;;;2.50;99.90;;;;;;5078797;28;20176;-82
2023/03/12 09:53:47;;;;;;;3.87;2.23;;;2.50;99.90;;;;;;5077774;28;20204;-80
2023/03/12 09:56:18;;;;;;;2.57;2.00;;;2.50;99.90;;;;;;5077790;28;20200;-82
2023/03/12 09:58:47;;;;;;;4.27;2.03;;;2.40;99.90;;;;;;5095235;28;20225;-83
2023/03/12 10:01:30;;;;;;;4.23;2.43;;;2.40;99.90;;;;;;5076862;28;20245;-85
2023/03/12 10:03:59;;;;;;;6.20;2.73;;;2.40;99.90;;;;;;5095227;28;20176;-84
2023/03/12 10:06:31;;;;;;;3.07;2.03;;;2.40;99.90;;;;;;5076633;28;20188;-84
2023/03/12 10:09:18;;;;;;;4.77;2.43;;;2.30;99.90;;;;;;5094865;28;20165;-83
2023/03/12 10:12:18;;;;;;;6.87;2.80;;;2.30;99.90;;;;;;5094691;28;20217;-86
2023/03/12 10:14:49;;;;;;;4.87;2.37;;;2.30;99.90;;;;;;5076784;28;20172;-85
2023/03/12 10:17:41;;;;;;;4.20;2.30;;;2.30;99.90;;;;;;5094647;28;20222;-85
2023/03/12 10:20:41;;;;;;;2.83;2.40;;;2.30;99.90;;;;;;5081879;28;20172;-81
2023/03/12 10:23:16;;;;;;;5.47;2.60;;;2.30;99.90;;;;;;5060018;28;20314;-80
2023/03/12 10:25:51;;;;;;;5.50;2.77;;;2.30;99.90;;;;;;5095086;28;20178;-82
2023/03/12 10:28:29;;;;;;;5.63;3.00;;;2.50;99.90;;;;;;5077594;28;20172;-80
2023/03/12 10:30:59;;;;;;;3.50;2.37;;;2.50;99.90;;;;;;5098300;28;20164;-78
2023/03/12 10:33:38;;;;;;;3.23;2.40;;;2.60;99.90;;;;;;5095431;28;20168;-79
2023/03/12 10:36:32;;;;;;;3.00;2.50;;;2.70;99.90;;;;;;5095974;28;20196;-78
2023/03/12 10:38:58;;;;;;;4.10;2.60;;;2.70;99.90;;;;;;5087459;28;20172;-78
2023/03/12 10:41:28;;;;;;;3.53;2.77;;;2.70;99.90;;;;;;5103906;28;20192;-79
2023/03/12 10:43:59;;;;;;;4.67;2.90;;;2.80;99.90;;;;;;5080478;28;20230;-78
2023/03/12 10:46:50;;;;;;;3.47;2.90;;;2.80;99.90;;;;;;5084826;28;20189;-77
2023/03/12 10:49:28;;;;;;;4.43;2.80;;;2.80;99.90;;;;;;5086613;28;20179;-77
2023/03/12 10:52:04;;;;;;;4.43;3.40;;;2.90;99.90;;;;;;5103061;28;20169;-79
2023/03/12 10:54:50;;;;;;;4.87;2.93;;;2.90;99.90;;;;;;5083197;28;20245;-80
2023/03/12 10:57:16;;;;;;;4.97;3.00;;;2.90;99.90;;;;;;5099983;28;20241;-81
2023/03/12 10:59:44;;;;;;;4.17;2.90;;;3.00;99.90;;;;;;5094454;28;20169;-80
2023/03/12 11:02:28;;;;;;;4.03;2.90;;;3.00;99.90;;;;;;5094635;28;20250;-81
2023/03/12 11:04:55;;;;;;;5.63;3.10;;;2.90;99.90;;;;;;5076309;28;20222;-80
2023/03/12 11:07:26;;;;;;;6.20;3.40;;;2.90;99.90;;;;;;5094528;28;20206;-81
2023/03/12 11:10:07;;;;;;;3.50;3.03;;;2.80;99.90;;;;;;5094757;28;20213;-80
2023/03/12 11:12:35;;;;;;;3.77;3.23;;;2.90;99.90;;;;;;5076104;28;20175;-81
2023/03/12 11:15:24;;;;;;;3.30;3.00;;;2.80;99.90;;;;;;5069186;28;20202;-80
2023/03/12 11:17:51;;;;;;;5.17;3.40;;;2.80;99.90;;;;;;5081662;23;20311;-81
2023/03/12 11:20:20;;;;;;;4.97;3.40;;;2.80;99.90;;;;;;5063548;28;20212;-81
2023/03/12 11:22:45;;;;;;;4.47;3.60;;;2.70;99.90;;;;;;5061750;28;20198;-81
2023/03/12 11:25:24;;;;;;;5.10;3.50;;;2.70;99.90;;;;;;5052763;28;20176;-80
2023/03/12 11:27:57;;;;;;;5.27;3.47;;;2.70;99.90;;;;;;5053625;28;20236;-80
2023/03/12 11:30:37;;;;;;;3.90;3.33;;;2.80;99.90;;;;;;5051865;28;20177;-81
2023/03/12 11:33:03;;;;;;;6.33;3.80;;;2.70;99.90;;;;;;5051964;28;20674;-81
2023/03/12 11:35:43;;;;;;;6.00;3.77;;;2.70;99.90;;;;;;5051971;28;20291;-81
2023/03/12 11:38:23;;;;;;;5.00;3.73;;;2.60;99.90;;;;;;5053300;28;20190;-80
2023/03/12 11:41:38;;;;;;;4.90;3.40;;;2.60;99.90;;;;;;5051979;28;20205;-83
2023/03/12 11:44:19;;;;;;;5.77;4.10;;;2.60;99.90;;;;;;5051905;28;20201;-90
2023/03/12 11:47:16;;;;;;;5.17;3.90;;;2.70;99.90;;;;;;5051491;28;20276;-87
2023/03/12 11:50:06;;;;;;;4.33;3.60;;;2.80;99.90;;;;;;5010707;28;20184;-87
2023/03/12 11:52:50;;;;;;;5.53;4.07;;;2.80;99.90;;;;;;5051402;28;20184;-86
2023/03/12 11:55:48;;;;;;;4.07;3.60;;;3.60;99.90;;;;;;5051212;28;20170;-81
2023/03/12 11:58:33;;;;;;;3.90;3.10;;;3.70;99.90;;;;;;5052323;28;20574;-82
2023/03/12 12:01:02;;;;;;;3.90;3.50;;;3.40;99.90;;;;;;5052848;28;20193;-82
2023/03/12 12:03:39;;;;;;;4.27;3.37;;;3.10;99.90;;;;;;5052834;28;20208;-83
2023/03/12 12:06:26;;;;;;;3.40;3.10;;;3.00;99.90;;;;;;5051401;28;20525;-84
2023/03/12 12:09:10;;;;;;;3.13;2.77;;;2.90;99.90;;;;;;5051578;28;20174;-82
2023/03/12 12:11:53;;;;;;;3.70;3.10;;;2.90;99.90;;;;;;5052463;28;20550;-83
2023/03/12 12:14:21;;;;;;;3.30;2.60;;;2.80;99.90;;;;;;5051240;28;20170;-84
2023/03/12 12:17:08;;;;;;;3.93;2.93;;;2.80;99.90;;;;;;5052204;28;20588;-82
2023/03/12 12:19:50;;;;;;;3.77;3.20;;;2.90;99.90;;;;;;5051062;28;20200;-82
2023/03/12 12:22:30;;;;;;;3.10;2.80;;;2.90;99.90;;;;;;5052883;28;20293;-83
2023/03/12 12:25:40;;;;;;;3.30;2.80;;;3.00;99.90;;;;;;5051156;28;20170;-83
2023/03/12 12:28:36;;;;;;;3.10;2.63;;;3.10;99.90;;;;;;5013417;28;20249;-82
2023/03/12 12:31:22;;;;;;;3.10;2.57;;;3.10;99.90;;;;;;5050955;28;20181;-83
2023/03/12 12:34:25;;;;;;;3.53;2.57;;;3.10;99.90;;;;;;5052682;28;20224;-82
2023/03/12 12:37:00;;;;;;;2.60;2.40;;;3.10;99.90;;;;;;5018854;28;20235;-83
2023/03/12 12:39:40;;;;;;;2.77;2.50;;;3.10;99.90;;;;;;5049718;28;20178;-83
2023/03/12 12:42:12;;;;;;;2.83;2.50;;;3.10;99.90;;;;;;5048147;28;20668;-82
2023/03/12 12:44:45;;;;;;;2.70;2.50;;;3.10;99.90;;;;;;5050724;28;20171;-83
2023/03/12 12:47:17;;;;;;;2.53;2.33;;;3.20;99.90;;;;;;5051000;28;20234;-82
2023/03/12 12:49:47;;;;;;;2.73;2.50;;;3.10;99.90;;;;;;5052159;28;20171;-82
2023/03/12 12:52:17;;;;;;;2.83;2.60;;;3.20;99.90;;;;;;5052367;28;20170;-83
2023/03/12 12:55:09;;;;;;;3.70;2.70;;;3.20;99.90;;;;;;5052441;28;20171;-83
2023/03/12 12:57:43;;;;;;;3.10;2.80;;;3.20;99.90;;;;;;5051034;28;20197;-82
2023/03/12 13:00:35;;;;;;;3.50;2.63;;;3.30;99.90;;;;;;5051576;28;20586;-83
2023/03/12 13:03:01;;;;;;;2.83;2.53;;;3.30;99.90;;;;;;5052250;28;20576;-83
2023/03/12 13:05:35;;;;;;;3.30;2.80;;;3.30;99.90;;;;;;5049766;28;20189;-84